Archival Weather

Fukuoka

Fukuoka, Japan (RJFF)

Report from: Tuesday, August 16, 2022 1:44 PM JST
Current time: Sunday, November 27, 2022 6:15 PM JST

Current weather
Weather history
Weather forecast

Present weatherThunderstorm with rain
Temperature28.0°C (82.4°F)
Heat index34.4°C (93.9°F)
Dew point27.0°C (80.6°F)
Winds 8 kts (4.1 m/s, 9.2 mph) Vrb
Winds variableWinds variable from Southeast (130°) to Southwest (220°)
Visibility6.2 mi. (10 km)
Clouds Few clouds 800 ft. (244 m)
Few clouds with cumulonimbus 2,000 ft. (610 m)
Scattered clouds 3,000 ft. (914 m)
Ceiling: Broken clouds 4,000 ft. (1,219 m)
Altimeter29.74 in.Hg (1007 mB)
Precip. events C 1:02 PM
Relative humidity94 %
Density altitude2,180 ft. (665 m)
Remarks Special weather observation
Thunderstorm south southwest moving northeast
Flight conditions Visual Meteorological Conditions
Raw dataSPJP31 KWBC 160454 SPECI RJFF 160444Z 16008KT 130V220 9999 R16/2000N TSRA FEW008 FEW020CB SCT030 BKN040 28/27 Q1007 RMK 1ST008 2CB020 3CU030 5CU040 A2974 FBL TS 20KM S-SW MOV NE
An error has occurred. This application may no longer respond until reloaded. Reload 🗙